createdAt,value
2023-01-08T00:02:13.737Z,99.26
2023-01-08T00:04:42.473Z,99.16
2023-01-08T00:07:10.781Z,98.84
2023-01-08T00:09:39.777Z,98.97
2023-01-08T00:12:08.359Z,99.09
2023-01-08T00:14:38.156Z,98.99
2023-01-08T00:17:06.857Z,98.91
2023-01-08T00:19:35.716Z,98.90
2023-01-08T00:22:03.986Z,99.04
2023-01-08T00:24:32.660Z,99.08
2023-01-08T00:27:03.665Z,98.98
2023-01-08T00:29:34.909Z,98.92
2023-01-08T00:32:06.257Z,98.75
2023-01-08T00:34:35.299Z,98.78
2023-01-08T00:37:03.862Z,99.06
2023-01-08T00:39:35.252Z,98.95
2023-01-08T00:42:05.334Z,98.78
2023-01-08T00:44:33.532Z,98.86
2023-01-08T00:47:03.774Z,98.68
2023-01-08T00:49:34.479Z,98.50
2023-01-08T00:52:02.958Z,98.50
2023-01-08T00:54:31.713Z,98.59
2023-01-08T00:57:01.145Z,98.52
2023-01-08T00:59:29.425Z,98.70
2023-01-08T01:01:58.194Z,98.61
2023-01-08T01:04:28.009Z,98.56
2023-01-08T01:06:58.136Z,98.67
2023-01-08T01:09:28.704Z,98.48
2023-01-08T01:11:57.722Z,98.57
2023-01-08T01:14:27.184Z,98.45
2023-01-08T01:16:55.865Z,98.50
2023-01-08T01:19:24.434Z,98.46
2023-01-08T01:21:53.271Z,98.25
2023-01-08T01:24:25.432Z,98.35
2023-01-08T01:26:53.846Z,98.43
2023-01-08T01:29:22.929Z,98.43
2023-01-08T01:31:51.497Z,98.73
2023-01-08T01:34:19.906Z,98.79
2023-01-08T01:36:48.327Z,98.68
2023-01-08T01:39:20.096Z,98.82
2023-01-08T01:41:50.454Z,98.81
2023-01-08T01:44:40.257Z,98.46
2023-01-08T01:47:17.102Z,98.58
2023-01-08T01:49:52.001Z,98.49
2023-01-08T01:52:22.374Z,98.59
2023-01-08T01:54:51.972Z,98.02
2023-01-08T01:57:22.350Z,98.13
2023-01-08T01:59:51.279Z,98.48
2023-01-08T02:02:22.079Z,98.25
2023-01-08T02:04:56.983Z,98.35
2023-01-08T02:07:36.047Z,98.60
2023-01-08T02:10:11.021Z,98.40
2023-01-08T02:12:46.285Z,98.55
2023-01-08T02:15:22.715Z,98.49
2023-01-08T02:17:56.366Z,98.16
2023-01-08T02:20:29.611Z,98.43
2023-01-08T02:23:15.588Z,98.40
2023-01-08T02:26:12.892Z,98.31
2023-01-08T02:28:44.821Z,98.08
2023-01-08T02:31:14.868Z,98.35
2023-01-08T02:33:43.463Z,98.37
2023-01-08T02:36:25.213Z,98.46
2023-01-08T02:39:05.889Z,98.22
2023-01-08T02:41:47.881Z,98.20
2023-01-08T02:44:21.432Z,98.25
2023-01-08T02:46:53.269Z,98.41
2023-01-08T02:49:25.620Z,98.26
2023-01-08T02:51:57.064Z,98.30
2023-01-08T02:54:31.386Z,98.37
2023-01-08T02:57:09.628Z,98.30
2023-01-08T02:59:40.942Z,98.19
2023-01-08T03:02:09.597Z,98.14
2023-01-08T03:04:41.920Z,98.34
2023-01-08T03:07:11.862Z,98.14
2023-01-08T03:09:40.536Z,98.22
2023-01-08T03:12:17.153Z,98.26
2023-01-08T03:14:51.385Z,98.18
2023-01-08T03:17:22.506Z,98.14
2023-01-08T03:19:55.036Z,98.07
2023-01-08T03:22:25.197Z,98.22
2023-01-08T03:24:55.386Z,98.04
2023-01-08T03:27:30.452Z,98.03
2023-01-08T03:30:01.151Z,98.08
2023-01-08T03:32:31.696Z,98.24
2023-01-08T03:35:02.668Z,98.34
2023-01-08T03:37:36.258Z,98.34
2023-01-08T03:40:09.411Z,98.30
2023-01-08T03:42:40.007Z,98.12
2023-01-08T03:45:09.641Z,98.25
2023-01-08T03:47:40.724Z,98.19
2023-01-08T03:50:12.230Z,98.30
2023-01-08T03:52:41.990Z,98.26
2023-01-08T03:55:11.727Z,98.16
2023-01-08T03:57:41.873Z,98.12
2023-01-08T04:00:11.952Z,98.13
2023-01-08T04:02:42.501Z,98.16
2023-01-08T04:05:11.546Z,98.21
2023-01-08T04:07:39.799Z,98.13
2023-01-08T04:10:09.231Z,97.96
2023-01-08T04:12:38.035Z,97.90
2023-01-08T04:15:09.070Z,98.23
2023-01-08T04:17:39.772Z,97.78
2023-01-08T04:20:09.955Z,98.17
2023-01-08T04:22:39.838Z,97.80
2023-01-08T04:25:18.264Z,97.81
2023-01-08T04:27:46.780Z,97.84
2023-01-08T04:30:17.068Z,98.12
2023-01-08T04:32:45.812Z,98.12
2023-01-08T04:35:17.382Z,98.44
2023-01-08T04:37:47.155Z,98.16
2023-01-08T04:40:16.117Z,98.06
2023-01-08T04:42:45.636Z,98.41
2023-01-08T04:45:18.784Z,98.54
2023-01-08T04:47:48.592Z,98.33
2023-01-08T04:50:17.106Z,98.36
2023-01-08T04:52:45.725Z,98.14
2023-01-08T04:55:14.045Z,98.17
2023-01-08T04:57:42.669Z,98.38
2023-01-08T05:00:13.289Z,98.29
2023-01-08T05:02:43.491Z,98.24
2023-01-08T05:05:12.096Z,98.35
2023-01-08T05:07:40.603Z,98.39
2023-01-08T05:10:11.618Z,98.34
2023-01-08T05:12:39.937Z,98.24
2023-01-08T05:15:10.743Z,98.30
2023-01-08T05:17:39.553Z,98.26
2023-01-08T05:20:13.454Z,98.00
2023-01-08T05:22:43.735Z,98.08
2023-01-08T05:25:12.077Z,98.29
2023-01-08T05:27:40.597Z,98.16
2023-01-08T05:30:10.186Z,98.08
2023-01-08T05:32:38.621Z,98.21
2023-01-08T05:35:09.699Z,98.12
2023-01-08T05:37:39.328Z,98.20
2023-01-08T05:40:09.698Z,98.17
2023-01-08T05:42:38.408Z,98.26
2023-01-08T05:45:10.722Z,98.29
2023-01-08T05:47:39.585Z,98.48
2023-01-08T05:50:10.433Z,98.34
2023-01-08T05:52:38.742Z,98.37
2023-01-08T05:55:08.164Z,98.30
2023-01-08T05:57:36.805Z,98.28
2023-01-08T06:00:08.343Z,98.28
2023-01-08T06:02:39.238Z,98.20
2023-01-08T06:05:10.677Z,98.25
2023-01-08T06:07:39.588Z,98.16
2023-01-08T06:10:08.877Z,98.25
2023-01-08T06:12:37.451Z,98.14
2023-01-08T06:15:06.992Z,98.23
2023-01-08T06:17:36.901Z,98.20
2023-01-08T06:20:06.612Z,98.22
2023-01-08T06:22:37.516Z,98.20
2023-01-08T06:25:06.734Z,98.30
2023-01-08T06:27:35.039Z,98.34
2023-01-08T06:30:04.173Z,98.35
2023-01-08T06:32:32.929Z,98.38
2023-01-08T06:35:01.353Z,98.38
2023-01-08T06:37:31.184Z,98.50
2023-01-08T06:40:03.036Z,98.52
2023-01-08T06:42:32.348Z,98.50
2023-01-08T06:45:00.535Z,98.55
2023-01-08T06:47:28.789Z,98.19
2023-01-08T06:49:58.630Z,98.43
2023-01-08T06:52:27.606Z,98.39
2023-01-08T06:54:56.117Z,98.29
2023-01-08T06:57:26.333Z,98.25
2023-01-08T06:59:54.890Z,98.33
2023-01-08T07:02:25.524Z,98.30
2023-01-08T07:04:54.339Z,98.33
2023-01-08T07:07:22.792Z,98.28
2023-01-08T07:09:50.966Z,98.26
2023-01-08T07:12:20.804Z,98.32
2023-01-08T07:14:51.765Z,98.55
2023-01-08T07:17:24.648Z,98.17
2023-01-08T07:19:52.926Z,98.35
2023-01-08T07:22:22.845Z,98.38
2023-01-08T07:24:53.825Z,98.40
2023-01-08T07:27:22.367Z,98.24
2023-01-08T07:29:52.521Z,98.31
2023-01-08T07:32:21.095Z,98.44
2023-01-08T07:34:49.433Z,98.30
2023-01-08T07:37:19.219Z,98.38
2023-01-08T07:39:47.844Z,98.02
2023-01-08T07:42:16.856Z,98.22
2023-01-08T07:44:46.475Z,98.39
2023-01-08T07:47:17.091Z,98.06
2023-01-08T07:49:45.654Z,98.10
2023-01-08T07:52:14.079Z,98.30
2023-01-08T07:54:47.999Z,97.72
2023-01-08T07:57:16.220Z,97.65
2023-01-08T07:59:44.930Z,98.07
2023-01-08T08:02:17.886Z,98.32
2023-01-08T08:04:46.834Z,98.04
2023-01-08T08:07:15.288Z,97.70
2023-01-08T08:09:44.183Z,97.70
2023-01-08T08:12:14.445Z,98.05
2023-01-08T08:14:43.614Z,97.74
2023-01-08T08:17:12.155Z,97.97
2023-01-08T08:19:45.014Z,97.70
2023-01-08T08:22:15.030Z,97.48
2023-01-08T08:24:43.594Z,97.60
2023-01-08T08:27:12.320Z,97.65
2023-01-08T08:29:40.503Z,97.33
2023-01-08T08:32:09.080Z,97.28
2023-01-08T08:34:37.384Z,97.10
2023-01-08T08:37:07.244Z,97.22
2023-01-08T08:39:35.978Z,96.78
2023-01-08T08:42:05.806Z,96.79
2023-01-08T08:44:34.192Z,96.83
2023-01-08T08:47:03.872Z,96.89
2023-01-08T08:49:32.437Z,96.98
2023-01-08T08:52:00.857Z,96.86
2023-01-08T08:54:32.391Z,96.57
2023-01-08T08:57:01.053Z,96.57
2023-01-08T08:59:29.876Z,96.04
2023-01-08T09:02:00.916Z,95.89
2023-01-08T09:04:32.809Z,95.58
2023-01-08T09:07:01.819Z,95.90
2023-01-08T09:09:32.189Z,95.94
2023-01-08T09:12:00.994Z,95.75
2023-01-08T09:14:29.385Z,95.74
2023-01-08T09:16:57.781Z,95.36
2023-01-08T09:19:26.583Z,95.32
2023-01-08T09:21:55.220Z,95.46
2023-01-08T09:24:23.977Z,94.88
2023-01-08T09:26:57.852Z,94.82
2023-01-08T09:29:26.334Z,94.60
2023-01-08T09:31:56.578Z,94.53
2023-01-08T09:34:26.113Z,94.46
2023-01-08T09:36:57.929Z,94.26
2023-01-08T09:39:29.162Z,94.32
2023-01-08T09:42:01.314Z,94.56
2023-01-08T09:44:35.733Z,93.92
2023-01-08T09:47:06.040Z,94.09
2023-01-08T09:49:43.710Z,94.08
2023-01-08T09:52:15.126Z,93.53
2023-01-08T09:54:44.894Z,93.49
2023-01-08T09:57:18.119Z,93.50
2023-01-08T09:59:48.509Z,92.70
2023-01-08T10:02:20.958Z,92.07
2023-01-08T10:04:55.447Z,92.02
2023-01-08T10:07:25.529Z,92.02
2023-01-08T10:09:55.104Z,91.86
2023-01-08T10:12:28.536Z,91.70
2023-01-08T10:15:00.543Z,91.56
2023-01-08T10:17:36.663Z,91.86
2023-01-08T10:20:12.844Z,90.77
2023-01-08T10:22:42.610Z,90.07
2023-01-08T10:25:13.227Z,90.05
2023-01-08T10:27:54.477Z,90.24
2023-01-08T10:30:24.760Z,90.00
2023-01-08T10:32:57.702Z,89.78
2023-01-08T10:35:34.033Z,90.30
2023-01-08T10:38:03.774Z,90.35
2023-01-08T10:40:40.120Z,90.20
2023-01-08T10:43:15.653Z,90.56
2023-01-08T10:45:46.551Z,90.21
2023-01-08T10:48:21.850Z,89.78
2023-01-08T10:50:50.337Z,89.72
2023-01-08T10:53:27.645Z,89.80
2023-01-08T10:56:00.229Z,89.55
2023-01-08T10:58:31.485Z,89.41
2023-01-08T11:01:10.964Z,89.79
2023-01-08T11:03:39.654Z,89.15
2023-01-08T11:06:20.288Z,89.14
2023-01-08T11:08:55.385Z,89.14
2023-01-08T11:11:24.813Z,89.22
2023-01-08T11:14:04.744Z,88.95
2023-01-08T11:16:36.819Z,88.82
2023-01-08T11:19:07.086Z,89.26
2023-01-08T11:21:39.991Z,88.99
2023-01-08T11:24:19.285Z,89.08
2023-01-08T11:26:54.680Z,88.93
2023-01-08T11:29:38.926Z,89.08
2023-01-08T11:32:31.818Z,89.19
2023-01-08T11:35:05.459Z,89.30
2023-01-08T11:37:37.278Z,88.90
2023-01-08T11:40:16.731Z,89.02
2023-01-08T11:43:06.953Z,88.52
2023-01-08T11:45:54.588Z,88.76
2023-01-08T11:48:51.578Z,88.48
2023-01-08T11:51:41.409Z,88.31
2023-01-08T11:54:23.882Z,88.29
2023-01-08T11:57:10.861Z,87.79
2023-01-08T12:00:11.757Z,87.60
2023-01-08T12:02:55.517Z,87.47
2023-01-08T12:05:28.558Z,87.86
2023-01-08T12:08:03.946Z,87.60
2023-01-08T12:11:07.265Z,88.15
2023-01-08T12:13:58.408Z,87.94
2023-01-08T12:16:49.990Z,87.68
2023-01-08T12:19:30.480Z,87.88
2023-01-08T12:22:23.210Z,87.90
2023-01-08T12:25:24.694Z,88.27
2023-01-08T12:28:03.350Z,88.06
2023-01-08T12:30:46.908Z,88.09
2023-01-08T12:33:27.104Z,88.15
2023-01-08T12:36:01.335Z,88.56
2023-01-08T12:38:34.146Z,88.20
2023-01-08T12:41:07.436Z,88.23
2023-01-08T12:43:46.710Z,87.93
2023-01-08T12:46:17.814Z,88.61
2023-01-08T12:48:51.967Z,89.08
2023-01-08T12:51:30.338Z,88.91
2023-01-08T12:54:08.397Z,88.87
2023-01-08T12:56:44.731Z,89.04
2023-01-08T12:59:22.829Z,89.79
2023-01-08T13:01:58.863Z,90.08
2023-01-08T13:04:28.202Z,90.21
2023-01-08T13:07:04.512Z,90.32
2023-01-08T13:09:34.017Z,90.44
2023-01-08T13:12:02.629Z,90.15
2023-01-08T13:14:43.044Z,90.30
2023-01-08T13:17:21.377Z,90.47
2023-01-08T13:19:56.386Z,90.55
2023-01-08T13:22:30.077Z,90.43
2023-01-08T13:25:28.375Z,90.09
2023-01-08T13:27:57.456Z,90.23
2023-01-08T13:30:43.537Z,89.84
2023-01-08T13:33:28.934Z,90.16
2023-01-08T13:36:21.128Z,90.17
2023-01-08T13:39:04.404Z,90.08
2023-01-08T13:41:35.368Z,89.85
2023-01-08T13:44:06.559Z,90.03
2023-01-08T13:46:38.187Z,90.05
2023-01-08T13:49:08.216Z,90.05
2023-01-08T13:51:45.951Z,89.98
2023-01-08T13:54:30.608Z,89.72
2023-01-08T13:57:05.761Z,89.84
2023-01-08T13:59:43.111Z,90.17
2023-01-08T14:02:31.434Z,90.98
2023-01-08T14:05:03.392Z,90.41
2023-01-08T14:07:33.120Z,90.07
2023-01-08T14:10:13.327Z,90.17
2023-01-08T14:12:46.198Z,90.46
2023-01-08T14:15:23.196Z,90.47
2023-01-08T14:17:57.453Z,91.06
2023-01-08T14:20:46.027Z,91.53
2023-01-08T14:23:19.987Z,91.23
2023-01-08T14:25:51.993Z,91.73
2023-01-08T14:28:22.060Z,91.75
2023-01-08T14:30:54.480Z,92.14
2023-01-08T14:33:28.276Z,91.90
2023-01-08T14:35:57.444Z,91.76
2023-01-08T14:38:26.384Z,92.01
2023-01-08T14:41:07.363Z,91.84
2023-01-08T14:43:41.442Z,91.79
2023-01-08T14:46:19.589Z,91.96
2023-01-08T14:48:49.786Z,91.98
2023-01-08T14:51:24.520Z,92.08
2023-01-08T14:53:56.578Z,92.27
2023-01-08T14:56:33.152Z,92.19
2023-01-08T14:59:09.359Z,92.43
2023-01-08T15:01:38.925Z,92.45
2023-01-08T15:04:10.808Z,92.57
2023-01-08T15:06:39.156Z,92.64
2023-01-08T15:09:22.314Z,92.75
2023-01-08T15:11:58.408Z,92.64
2023-01-08T15:14:31.496Z,92.67
2023-01-08T15:17:05.798Z,92.85
2023-01-08T15:19:45.570Z,93.07
2023-01-08T15:22:17.583Z,93.04
2023-01-08T15:24:59.283Z,92.94
2023-01-08T15:27:33.680Z,93.05
2023-01-08T15:30:04.154Z,93.23
2023-01-08T15:32:36.993Z,93.33
2023-01-08T15:35:17.023Z,93.11
2023-01-08T15:37:46.969Z,93.21
2023-01-08T15:40:15.734Z,93.14
2023-01-08T15:43:06.320Z,93.25
2023-01-08T15:45:34.750Z,93.12
2023-01-08T15:48:05.067Z,93.08
2023-01-08T15:50:38.823Z,92.85
2023-01-08T15:53:23.090Z,92.99
2023-01-08T15:55:52.889Z,92.96
2023-01-08T15:58:23.452Z,93.23
2023-01-08T16:00:52.590Z,93.04
2023-01-08T16:03:22.889Z,93.03
2023-01-08T16:05:51.848Z,92.97
2023-01-08T16:08:20.498Z,92.73
2023-01-08T16:10:53.036Z,92.84
2023-01-08T16:13:23.842Z,93.18
2023-01-08T16:15:52.181Z,93.28
2023-01-08T16:18:22.373Z,93.24
2023-01-08T16:20:50.920Z,93.44
2023-01-08T16:23:19.224Z,93.53
2023-01-08T16:25:48.793Z,93.26
2023-01-08T16:28:17.069Z,93.45
2023-01-08T16:30:47.049Z,93.51
2023-01-08T16:33:15.791Z,93.38
2023-01-08T16:35:44.345Z,93.62
2023-01-08T16:38:14.281Z,93.71
2023-01-08T16:40:42.699Z,93.91
2023-01-08T16:43:12.634Z,93.66
2023-01-08T16:45:53.776Z,93.58
2023-01-08T16:48:23.159Z,93.45
2023-01-08T16:50:52.342Z,93.47
2023-01-08T16:53:22.621Z,93.71
2023-01-08T16:55:51.259Z,93.69
2023-01-08T16:58:19.578Z,93.34
2023-01-08T17:00:51.273Z,92.98
2023-01-08T17:03:20.215Z,93.26
2023-01-08T17:05:48.897Z,93.37
2023-01-08T17:08:20.311Z,93.45
2023-01-08T17:10:51.188Z,93.45
2023-01-08T17:13:20.195Z,93.42
2023-01-08T17:15:54.022Z,93.16
2023-01-08T17:18:22.381Z,93.29
2023-01-08T17:20:54.863Z,93.46
2023-01-08T17:23:27.411Z,93.35
2023-01-08T17:25:57.147Z,93.54
2023-01-08T17:28:28.686Z,93.51
2023-01-08T17:31:06.799Z,93.57
2023-01-08T17:33:36.141Z,93.96
2023-01-08T17:36:11.332Z,93.17
2023-01-08T17:38:40.212Z,92.86
2023-01-08T17:41:10.272Z,92.44
2023-01-08T17:43:41.436Z,92.81
2023-01-08T17:46:11.680Z,92.46
2023-01-08T17:48:42.159Z,91.17
2023-01-08T17:51:14.312Z,90.94
2023-01-08T17:53:43.439Z,89.44
2023-01-08T17:56:12.288Z,89.57
2023-01-08T17:58:41.929Z,89.04
2023-01-08T18:01:13.295Z,88.50
2023-01-08T18:03:43.376Z,88.48
2023-01-08T18:06:13.612Z,87.60
2023-01-08T18:08:42.687Z,86.84
2023-01-08T18:11:13.970Z,86.36
2023-01-08T18:13:44.278Z,85.62
2023-01-08T18:16:15.422Z,84.67
2023-01-08T18:18:44.268Z,85.07
2023-01-08T18:21:13.076Z,84.96
2023-01-08T18:23:47.561Z,84.91
2023-01-08T18:26:17.601Z,85.06
2023-01-08T18:28:46.576Z,84.54
2023-01-08T18:31:16.983Z,84.35
2023-01-08T18:33:46.582Z,83.76
2023-01-08T18:36:15.518Z,84.03
2023-01-08T18:38:45.436Z,84.00
2023-01-08T18:41:37.250Z,84.35
2023-01-08T18:44:07.690Z,83.23
2023-01-08T18:46:38.822Z,83.42
2023-01-08T18:49:07.555Z,83.25
2023-01-08T18:51:36.055Z,83.26
2023-01-08T18:54:05.629Z,83.26
2023-01-08T18:56:35.789Z,83.22
2023-01-08T18:59:06.467Z,82.83
2023-01-08T19:01:41.570Z,82.97
2023-01-08T19:04:15.645Z,82.80
2023-01-08T19:06:45.612Z,82.83
2023-01-08T19:09:15.471Z,83.63
2023-01-08T19:11:45.394Z,83.01
2023-01-08T19:14:15.541Z,83.60
2023-01-08T19:16:51.475Z,83.37
2023-01-08T19:19:20.933Z,83.30
2023-01-08T19:21:49.781Z,83.52
2023-01-08T19:24:19.328Z,82.79
2023-01-08T19:26:49.138Z,83.19
2023-01-08T19:29:24.515Z,83.57
2023-01-08T19:31:55.103Z,84.07
2023-01-08T19:34:24.161Z,83.39
2023-01-08T19:36:54.201Z,83.35
2023-01-08T19:39:22.831Z,83.45
2023-01-08T19:42:10.337Z,83.51
2023-01-08T19:44:40.156Z,83.28
2023-01-08T19:47:11.430Z,83.35
2023-01-08T19:49:41.556Z,83.41
2023-01-08T19:52:10.352Z,82.98
2023-01-08T19:54:46.193Z,83.05
2023-01-08T19:57:15.160Z,83.12
2023-01-08T19:59:44.162Z,82.88
2023-01-08T20:02:14.860Z,82.79
2023-01-08T20:04:44.243Z,82.51
2023-01-08T20:07:15.027Z,82.90
2023-01-08T20:09:47.768Z,83.35
2023-01-08T20:12:16.873Z,83.52
2023-01-08T20:14:45.711Z,83.22
2023-01-08T20:17:19.188Z,82.95
2023-01-08T20:19:50.095Z,83.27
2023-01-08T20:22:18.859Z,83.18
2023-01-08T20:24:47.899Z,83.54
2023-01-08T20:27:16.693Z,83.60
2023-01-08T20:29:45.625Z,83.38
2023-01-08T20:32:16.095Z,83.53
2023-01-08T20:34:45.028Z,84.06
2023-01-08T20:37:14.132Z,83.58
2023-01-08T20:39:43.609Z,83.73
2023-01-08T20:42:17.296Z,83.74
2023-01-08T20:44:47.310Z,83.79
2023-01-08T20:47:20.606Z,84.17
2023-01-08T20:49:50.041Z,83.95
2023-01-08T20:52:18.842Z,83.98
2023-01-08T20:54:47.723Z,83.71
2023-01-08T20:57:16.312Z,83.57
2023-01-08T20:59:45.834Z,84.07
2023-01-08T21:02:14.176Z,84.46
2023-01-08T21:04:44.195Z,83.88
2023-01-08T21:07:12.544Z,84.30
2023-01-08T21:09:46.610Z,84.55
2023-01-08T21:12:15.934Z,84.62
2023-01-08T21:14:44.497Z,84.56
2023-01-08T21:17:13.092Z,85.24
2023-01-08T21:19:42.102Z,85.32
2023-01-08T21:22:12.329Z,85.15
2023-01-08T21:24:41.599Z,85.61
2023-01-08T21:27:10.037Z,85.84
2023-01-08T21:29:38.444Z,86.41
2023-01-08T21:32:08.088Z,86.90
2023-01-08T21:34:37.870Z,86.97
2023-01-08T21:37:08.542Z,86.58
2023-01-08T21:39:40.585Z,86.53
2023-01-08T21:42:28.893Z,86.80
2023-01-08T21:45:15.071Z,87.52
2023-01-08T21:47:49.807Z,87.44
2023-01-08T21:50:18.633Z,87.16
2023-01-08T21:53:04.539Z,87.12
2023-01-08T21:55:35.382Z,87.44
2023-01-08T21:58:04.254Z,87.83
2023-01-08T22:00:33.944Z,88.02
2023-01-08T22:03:03.037Z,88.03
2023-01-08T22:05:31.322Z,88.16
2023-01-08T22:08:01.385Z,87.87
2023-01-08T22:10:29.867Z,87.96
2023-01-08T22:13:02.058Z,88.47
2023-01-08T22:15:30.405Z,88.49
2023-01-08T22:17:59.321Z,88.87
2023-01-08T22:20:27.643Z,88.95
2023-01-08T22:22:56.106Z,89.09
2023-01-08T22:25:24.542Z,88.96
2023-01-08T22:27:54.818Z,88.72
2023-01-08T22:30:25.086Z,89.15
2023-01-08T22:32:53.330Z,89.54
2023-01-08T22:35:21.637Z,89.68
2023-01-08T22:37:51.084Z,89.51
2023-01-08T22:40:20.232Z,89.10
2023-01-08T22:42:48.845Z,89.19
2023-01-08T22:45:18.091Z,89.24
2023-01-08T22:47:49.500Z,89.62
2023-01-08T22:50:18.709Z,89.99
2023-01-08T22:52:47.325Z,89.83
2023-01-08T22:55:15.921Z,89.76
2023-01-08T22:57:46.007Z,89.97
2023-01-08T23:00:15.610Z,90.11
2023-01-08T23:02:44.612Z,90.01
2023-01-08T23:05:14.944Z,90.29
2023-01-08T23:07:43.383Z,90.47
2023-01-08T23:10:12.752Z,90.91
2023-01-08T23:12:44.342Z,90.81
2023-01-08T23:15:12.841Z,90.93
2023-01-08T23:17:51.491Z,91.20
2023-01-08T23:20:25.896Z,91.13
2023-01-08T23:22:55.169Z,91.07
2023-01-08T23:25:23.727Z,90.97
2023-01-08T23:27:52.742Z,91.01
2023-01-08T23:30:23.523Z,90.98
2023-01-08T23:32:52.254Z,91.03
2023-01-08T23:35:23.860Z,91.32
2023-01-08T23:37:52.967Z,91.65
2023-01-08T23:40:21.497Z,91.57
2023-01-08T23:42:49.871Z,91.41
2023-01-08T23:45:18.551Z,91.20
2023-01-08T23:47:47.021Z,91.46
2023-01-08T23:50:18.088Z,91.56
2023-01-08T23:52:49.829Z,91.47
2023-01-08T23:55:19.205Z,91.49
2023-01-08T23:57:48.363Z,91.43
